Time;durP1;ratioP1;P1;durP2;ratioP2;P2;SDS_P1;SDS_P2;PMS_P1;PMS_P2;Temp;Humidity;BMP_temperature;BMP_pressure;BME280_temperature;BME280_humidity;BME280_pressure;Samples;Min_cycle;Max_cycle;Signal;HPM_P1;HPM_P2
2024/03/14 00:00:33;;;;;;;125.20;54.00;;;;;;;5.55;100.00;100640.73;214331;1283;140791;-84
2024/03/14 00:05:34;;;;;;;172.00;66.90;;;;;;;5.58;100.00;100642.23;214468;1283;139203;-83
2024/03/14 00:10:34;;;;;;;139.10;59.70;;;;;;;5.57;100.00;100643.90;214121;1288;140225;-82
2024/03/14 00:15:35;;;;;;;133.40;57.70;;;;;;;5.56;100.00;100639.61;214614;1288;139073;-82
2024/03/14 00:20:37;;;;;;;141.10;56.20;;;;;;;5.55;100.00;100632.40;214346;1283;140762;-82
2024/03/14 00:25:40;;;;;;;187.50;71.40;;;;;;;5.55;100.00;100629.65;214881;1286;139239;-82
2024/03/14 00:30:41;;;;;;;247.50;76.90;;;;;;;5.53;100.00;100629.20;213949;1282;140915;-82
2024/03/14 00:35:41;;;;;;;265.90;80.40;;;;;;;5.51;100.00;100624.60;214601;1285;139493;-82
2024/03/14 00:40:43;;;;;;;170.40;61.90;;;;;;;5.49;100.00;100618.47;213774;1283;140323;-82
2024/03/14 00:45:43;;;;;;;155.30;59.80;;;;;;;5.46;100.00;100614.08;214472;1288;139376;-82
2024/03/14 00:50:45;;;;;;;171.50;64.20;;;;;;;5.43;100.00;100610.54;214285;1283;140022;-82
2024/03/14 00:55:45;;;;;;;118.70;54.20;;;;;;;5.41;100.00;100608.44;214933;1283;139207;-83
2024/03/14 01:00:45;;;;;;;100.30;47.90;;;;;;;5.40;100.00;100600.04;215293;1288;139049;-82
2024/03/14 01:05:45;;;;;;;98.00;48.60;;;;;;;5.39;100.00;100598.60;214547;1283;139561;-82
2024/03/14 01:10:46;;;;;;;154.40;62.90;;;;;;;5.37;100.00;100595.57;214098;1283;140594;-82
2024/03/14 01:15:48;;;;;;;156.30;64.80;;;;;;;5.33;100.00;100591.61;214592;1286;139540;-82
2024/03/14 01:20:48;;;;;;;140.80;57.30;;;;;;;5.27;100.00;100587.98;214327;1287;140355;-82
2024/03/14 01:25:49;;;;;;;103.60;48.10;;;;;;;5.23;100.00;100583.21;214901;1282;138757;-82
2024/03/14 01:30:50;;;;;;;123.90;55.00;;;;;;;5.17;100.00;100575.86;214115;1286;140134;-82
2024/03/14 01:35:58;;;;;;;105.20;46.70;;;;;;;5.12;100.00;100579.26;214616;1283;140159;-82
2024/03/14 01:40:59;;;;;;;137.20;53.40;;;;;;;5.04;100.00;100580.39;214065;1282;140826;-82
2024/03/14 01:45:59;;;;;;;148.90;59.40;;;;;;;4.96;100.00;100580.09;214530;1285;139205;-83
2024/03/14 01:51:00;;;;;;;134.10;54.50;;;;;;;4.88;100.00;100580.46;213998;1283;140779;-83
2024/03/14 01:56:01;;;;;;;122.40;50.20;;;;;;;4.81;100.00;100583.77;214582;1283;98066;-82
2024/03/14 02:01:01;;;;;;;113.50;50.80;;;;;;;4.73;100.00;100577.23;215925;1282;140362;-82
2024/03/14 02:06:16;;;;;;;124.30;48.00;;;;;;;4.67;100.00;100575.08;214668;1283;139763;-82
2024/03/14 02:11:21;;;;;;;114.40;49.90;;;;;;;4.62;100.00;100577.20;214484;1285;139919;-82
2024/03/14 02:16:21;;;;;;;123.20;50.60;;;;;;;4.57;100.00;100572.98;214103;1283;140348;-82
2024/03/14 02:21:22;;;;;;;132.10;53.20;;;;;;;4.52;100.00;100572.24;214342;1283;139035;-83
2024/03/14 02:26:22;;;;;;;103.50;48.00;;;;;;;4.44;100.00;100566.57;214123;1283;140801;-83
2024/03/14 02:31:22;;;;;;;113.70;50.60;;;;;;;4.40;100.00;100566.98;214476;1282;139444;-83
2024/03/14 02:36:23;;;;;;;104.60;49.00;;;;;;;4.39;100.00;100564.83;214177;1283;143509;-82
2024/03/14 02:41:24;;;;;;;128.30;53.20;;;;;;;4.35;100.00;100569.34;214666;1286;139139;-83
2024/03/14 02:46:27;;;;;;;119.60;52.90;;;;;;;4.28;100.00;100575.31;214246;1283;142409;-82
2024/03/14 02:51:28;;;;;;;203.50;79.20;;;;;;;4.19;100.00;100567.65;214565;1286;139033;-81
2024/03/14 02:56:28;;;;;;;177.10;69.70;;;;;;;4.15;100.00;100569.95;213903;1283;140449;-82
2024/03/14 03:01:32;;;;;;;123.80;53.60;;;;;;;4.10;100.00;100570.41;216531;1285;138953;-83
2024/03/14 03:06:33;;;;;;;113.50;51.20;;;;;;;4.04;100.00;100569.00;214268;1283;140604;-83
2024/03/14 03:11:34;;;;;;;112.00;53.40;;;;;;;3.98;100.00;100566.84;214734;1283;139583;-83
2024/03/14 03:16:36;;;;;;;117.00;50.40;;;;;;;3.92;100.00;100559.44;213937;1284;140816;-83
2024/03/14 03:21:37;;;;;;;101.90;47.70;;;;;;;3.83;100.00;100556.66;214251;1285;139522;-82
2024/03/14 03:26:40;;;;;;;101.60;47.60;;;;;;;3.76;100.00;100551.33;214208;1286;140146;-83
2024/03/14 03:31:41;;;;;;;92.20;45.70;;;;;;;3.71;100.00;100550.79;214492;1286;139447;-83
2024/03/14 03:36:46;;;;;;;102.50;48.00;;;;;;;3.65;100.00;100553.05;214015;1286;140352;-83
2024/03/14 03:41:46;;;;;;;100.60;45.60;;;;;;;3.56;100.00;100549.71;214523;1287;139552;-83
2024/03/14 03:46:47;;;;;;;105.90;48.70;;;;;;;3.48;100.00;100549.10;214122;1282;141794;-83
2024/03/14 03:51:47;;;;;;;98.40;46.50;;;;;;;3.43;100.00;100544.92;214540;1285;139153;-83
2024/03/14 03:56:48;;;;;;;104.80;47.30;;;;;;;3.38;100.00;100540.37;214006;1282;140297;-83
2024/03/14 04:01:48;;;;;;;85.10;43.90;;;;;;;3.32;100.00;100540.23;215516;1282;138656;-83
2024/03/14 04:06:49;;;;;;;103.80;47.30;;;;;;;3.27;100.00;100547.20;214453;1283;140771;-82
2024/03/14 04:11:49;;;;;;;100.60;44.00;;;;;;;3.22;100.00;100546.13;214274;1282;139040;-82
2024/03/14 04:16:49;;;;;;;130.50;53.20;;;;;;;3.17;100.00;100546.40;213982;1286;140132;-82
2024/03/14 04:21:50;;;;;;;97.30;45.20;;;;;;;3.13;100.00;100551.57;214406;1282;139096;-83
2024/03/14 04:26:50;;;;;;;98.00;43.90;;;;;;;3.08;100.00;100553.44;214024;1286;139989;-83
2024/03/14 04:31:51;;;;;;;87.00;40.90;;;;;;;3.03;100.00;100555.48;214350;1282;138508;-82
2024/03/14 04:36:51;;;;;;;100.80;41.50;;;;;;;2.98;100.00;100552.34;213777;1283;140185;-82
2024/03/14 04:41:52;;;;;;;87.20;41.10;;;;;;;2.93;100.00;100560.48;214316;1287;139169;-83
2024/03/14 04:46:54;;;;;;;92.90;40.40;;;;;;;2.86;100.00;100558.80;213921;1283;140020;-82
2024/03/14 04:51:56;;;;;;;84.30;38.00;;;;;;;2.80;100.00;100560.30;214478;1282;138962;-82
2024/03/14 04:56:56;;;;;;;90.50;43.40;;;;;;;2.74;100.00;100561.91;213939;1283;140251;-82
2024/03/14 05:01:56;;;;;;;84.50;38.50;;;;;;;2.69;100.00;100563.16;214510;1283;98907;-82
2024/03/14 05:06:57;;;;;;;76.30;36.20;;;;;;;2.64;100.00;100560.33;215695;1282;139788;-81
2024/03/14 05:11:58;;;;;;;84.00;38.90;;;;;;;2.60;100.00;100561.73;214146;1283;139553;-82
2024/03/14 05:16:58;;;;;;;80.70;40.50;;;;;;;2.52;100.00;100562.70;213811;1283;140315;-83
2024/03/14 05:21:58;;;;;;;92.50;40.90;;;;;;;2.47;100.00;100563.96;214437;1282;139500;-81
2024/03/14 05:27:00;;;;;;;89.00;39.40;;;;;;;2.42;100.00;100568.31;213842;1282;140776;-81
2024/03/14 05:32:00;;;;;;;87.10;41.10;;;;;;;2.36;100.00;100572.27;214528;1282;99284;-82
2024/03/14 05:37:00;;;;;;;334.70;102.60;;;;;;;2.32;100.00;100568.77;213927;1285;139815;-83
2024/03/14 05:42:01;;;;;;;145.90;60.50;;;;;;;2.30;100.00;100568.92;214319;1282;139593;-82
2024/03/14 05:47:02;;;;;;;268.20;93.80;;;;;;;2.30;100.00;100566.98;213905;1285;140286;-82
2024/03/14 05:52:03;;;;;;;155.30;64.70;;;;;;;2.31;100.00;100563.36;214493;1282;139559;-81
2024/03/14 05:57:04;;;;;;;109.80;49.60;;;;;;;2.35;100.00;100561.00;213633;1285;140503;-80
2024/03/14 06:02:07;;;;;;;120.20;51.60;;;;;;;2.50;100.00;100569.54;214596;1282;98961;-82
2024/03/14 06:07:07;;;;;;;131.00;52.90;;;;;;;2.58;100.00;100568.67;215522;1282;139985;-83
2024/03/14 06:12:09;;;;;;;123.50;54.50;;;;;;;2.68;100.00;100577.05;213702;1285;139249;-82
2024/03/14 06:17:10;;;;;;;135.30;56.20;;;;;;;2.79;100.00;100575.55;212815;1297;140443;-84
2024/03/14 06:22:14;;;;;;;136.60;60.30;;;;;;;2.93;100.00;100576.36;214558;1282;139197;-83
2024/03/14 06:27:15;;;;;;;148.30;66.30;;;;;;;3.16;100.00;100570.48;214068;1282;140279;-83
2024/03/14 06:32:15;;;;;;;146.00;65.80;;;;;;;3.34;100.00;100569.55;214305;1285;98015;-82
2024/03/14 06:37:17;;;;;;;167.60;68.70;;;;;;;3.50;100.00;100573.35;214117;1286;140051;-86
2024/03/14 06:42:17;;;;;;;141.70;62.70;;;;;;;3.71;100.00;100573.45;214637;1285;139553;-83
2024/03/14 06:47:20;;;;;;;155.10;66.70;;;;;;;3.93;100.00;100570.97;214146;1285;140294;-84
2024/03/14 06:52:20;;;;;;;130.00;61.70;;;;;;;4.12;100.00;100577.70;214623;1284;142751;-82
2024/03/14 06:57:21;;;;;;;141.80;62.40;;;;;;;4.31;100.00;100584.63;214165;1282;140403;-83
2024/03/14 07:02:21;;;;;;;137.30;60.90;;;;;;;4.49;100.00;100582.10;214798;1286;98019;-85
2024/03/14 07:07:22;;;;;;;162.70;66.60;;;;;;;4.70;100.00;100586.69;214985;1282;140153;-84
2024/03/14 07:12:22;;;;;;;149.40;62.70;;;;;;;4.89;100.00;100585.07;215491;1286;139060;-84
2024/03/14 07:17:23;;;;;;;134.50;58.90;;;;;;;5.09;100.00;100585.25;214742;1284;140721;-83
2024/03/14 07:22:24;;;;;;;154.40;67.30;;;;;;;5.32;100.00;100584.79;215183;1285;139523;-84
2024/03/14 07:27:27;;;;;;;139.70;70.50;;;;;;;5.52;100.00;100585.61;214102;1282;140373;-84
2024/03/14 07:32:28;;;;;;;141.60;79.40;;;;;;;5.73;100.00;100586.58;214577;1285;98877;-84
2024/03/14 07:37:28;;;;;;;134.90;81.80;;;;;;;5.97;100.00;100586.45;213910;1285;140758;-83
2024/03/14 07:42:30;;;;;;;143.00;92.80;;;;;;;6.20;100.00;100587.40;214490;1285;139860;-84
2024/03/14 07:47:31;;;;;;;149.80;109.80;;;;;;;6.39;100.00;100584.65;214215;1282;140253;-84
2024/03/14 07:52:32;;;;;;;151.70;129.90;;;;;;;6.61;100.00;100588.56;214705;1286;139747;-84
2024/03/14 07:57:36;;;;;;;148.30;119.80;;;;;;;6.81;100.00;100596.73;214562;1288;140901;-85
2024/03/14 08:02:39;;;;;;;164.70;148.30;;;;;;;7.03;100.00;100599.17;214799;1284;98025;-84
2024/03/14 08:07:39;;;;;;;199.60;181.90;;;;;;;7.27;100.00;100595.28;214295;1283;140599;-83
2024/03/14 08:12:40;;;;;;;201.70;184.00;;;;;;;7.53;100.00;100598.00;216251;1282;139593;-83
2024/03/14 08:17:40;;;;;;;280.30;257.60;;;;;;;7.78;100.00;100599.90;214025;1285;141125;-83
2024/03/14 08:22:42;;;;;;;296.60;272.60;;;;;;;8.05;100.00;100601.74;214582;1282;139918;-83
2024/03/14 08:27:43;;;;;;;401.10;370.60;;;;;;;8.35;100.00;100599.27;213695;1286;340910;-85
2024/03/14 08:32:44;;;;;;;492.00;454.00;;;;;;;8.66;100.00;100597.37;214630;1283;98537;-84
2024/03/14 08:37:45;;;;;;;589.40;541.10;;;;;;;8.97;100.00;100594.40;214039;1284;140936;-85
2024/03/14 08:42:45;;;;;;;699.30;639.10;;;;;;;9.27;100.00;100594.20;214368;1282;139027;-85
2024/03/14 08:47:46;;;;;;;997.30;887.30;;;;;;;9.60;100.00;100597.23;214182;1286;140741;-85
2024/03/14 08:52:47;;;;;;;1012.80;851.30;;;;;;;9.95;100.00;100595.66;214494;1282;139661;-85
2024/03/14 08:57:47;;;;;;;1423.50;997.40;;;;;;;10.31;100.00;100598.28;214032;1282;141232;-85
2024/03/14 09:02:51;;;;;;;1708.00;999.90;;;;;;;10.67;100.00;100594.21;214595;1285;99280;-86
2024/03/14 09:07:51;;;;;;;1659.70;999.90;;;;;;;11.15;100.00;100596.71;214279;1283;141113;-85
2024/03/14 09:12:52;;;;;;;1999.90;999.90;;;;;;;11.66;100.00;100591.89;216604;1284;139845;-85
2024/03/14 09:17:53;;;;;;;1999.90;999.90;;;;;;;12.16;100.00;100596.58;214042;1286;141010;-85
2024/03/14 09:22:53;;;;;;;1999.90;999.90;;;;;;;12.65;100.00;100595.80;214618;1282;139984;-85
2024/03/14 09:27:54;;;;;;;1792.50;999.90;;;;;;;13.16;100.00;100597.54;213980;1287;140829;-88
2024/03/14 09:32:55;;;;;;;1948.50;999.90;;;;;;;13.58;100.00;100600.02;214450;1287;139715;-87
2024/03/14 09:37:55;;;;;;;1807.00;999.90;;;;;;;13.98;100.00;100601.87;214017;1288;140956;-86
2024/03/14 09:42:58;;;;;;;1042.30;895.00;;;;;;;14.38;99.09;100598.06;214462;1287;140057;-87
2024/03/14 09:47:58;;;;;;;1126.00;958.00;;;;;;;14.69;93.08;100600.77;214175;1285;140959;-87
2024/03/14 09:53:00;;;;;;;1355.50;996.60;;;;;;;14.89;93.10;100601.97;214613;1284;140646;-85
2024/03/14 09:58:01;;;;;;;1390.60;997.00;;;;;;;15.28;91.89;100601.33;214362;1282;141256;-85
2024/03/14 10:03:04;;;;;;;1065.10;949.70;;;;;;;15.55;89.77;100597.30;214290;1283;140014;-88
2024/03/14 10:08:05;;;;;;;1374.20;990.10;;;;;;;15.62;85.64;100592.27;214288;1287;143649;-87
2024/03/14 10:13:05;;;;;;;1248.20;992.40;;;;;;;15.77;85.89;100589.85;216211;1282;138871;-85
2024/03/14 10:18:09;;;;;;;1097.40;952.40;;;;;;;16.00;87.17;100585.40;214688;1285;140311;-88
2024/03/14 10:23:09;;;;;;;1040.60;935.70;;;;;;;16.17;84.21;100589.45;214371;1287;138849;-87
2024/03/14 10:28:17;;;;;;;1259.90;998.20;;;;;;;16.24;83.03;100584.79;214215;1288;141312;-87
2024/03/14 10:33:18;;;;;;;1400.20;999.90;;;;;;;16.39;81.58;100580.21;214806;1282;139055;-86
2024/03/14 10:38:23;;;;;;;1780.30;967.20;;;;;;;16.43;79.27;100577.89;214499;1282;140537;-88
2024/03/14 10:43:30;;;;;;;1097.60;954.50;;;;;;;16.26;75.13;100574.68;214705;1282;138680;-87
2024/03/14 10:48:30;;;;;;;1163.80;977.70;;;;;;;16.12;73.85;100574.11;214635;1282;140539;-86
2024/03/14 10:53:32;;;;;;;1046.50;923.70;;;;;;;16.17;77.04;100564.93;214556;1288;139250;-87
2024/03/14 10:58:36;;;;;;;1231.90;997.10;;;;;;;16.28;74.50;100564.83;214288;1288;140194;-86
2024/03/14 11:03:38;;;;;;;977.20;882.60;;;;;;;16.33;75.89;100560.10;214634;1287;138878;-87
2024/03/14 11:08:44;;;;;;;972.70;885.60;;;;;;;16.46;73.34;100557.59;214071;1288;140360;-86
2024/03/14 11:13:50;;;;;;;1037.30;929.00;;;;;;;16.49;71.54;100552.41;214796;1288;138899;-86
2024/03/14 11:18:59;;;;;;;1164.50;948.20;;;;;;;16.47;71.09;100552.84;215208;1285;144492;-89
2024/03/14 11:24:02;;;;;;;1284.40;993.50;;;;;;;16.43;72.91;100546.67;214883;1282;138828;-88
2024/03/14 11:29:04;;;;;;;1047.40;940.00;;;;;;;16.35;74.53;100547.14;214559;1284;139421;-88
2024/03/14 11:34:05;;;;;;;1192.80;991.10;;;;;;;16.39;72.55;100549.49;214888;1288;138989;-87
2024/03/14 11:39:21;;;;;;;1328.30;999.90;;;;;;;16.35;74.20;100551.02;214553;1282;140167;-88
2024/03/14 11:44:22;;;;;;;1144.30;973.90;;;;;;;16.36;73.97;100545.06;215222;1287;112621;-86
2024/03/14 11:49:27;;;;;;;1537.60;999.90;;;;;;;16.32;72.30;100538.91;213933;1284;140256;-86
2024/03/14 11:54:31;;;;;;;1094.90;922.40;;;;;;;16.16;72.43;100538.29;214882;1282;139394;-87
2024/03/14 11:59:32;;;;;;;1325.00;998.00;;;;;;;16.02;72.49;100531.76;213778;1283;140071;-86
2024/03/14 12:04:32;;;;;;;1457.80;998.90;;;;;;;15.95;73.86;100529.13;214481;1283;139131;-86
2024/03/14 12:09:35;;;;;;;1328.80;991.70;;;;;;;15.91;74.43;100522.02;214016;1283;140327;-86
2024/03/14 12:14:36;;;;;;;1530.40;999.90;;;;;;;15.93;75.68;100518.36;216452;1284;99202;-84
2024/03/14 12:19:42;;;;;;;1684.50;999.90;;;;;;;15.96;75.71;100517.29;217970;1285;140661;-84
2024/03/14 12:24:51;;;;;;;;;;;;;;;15.96;75.56;100513.33;215807;1283;139102;-86
2024/03/14 12:29:51;;;;;;;1875.60;999.90;;;;;;;15.84;75.75;100516.05;214249;1282;127924;-85
2024/03/14 12:34:52;;;;;;;1916.50;999.90;;;;;;;15.85;77.59;100507.58;214146;1286;138875;-86
2024/03/14 12:39:53;;;;;;;1999.90;999.90;;;;;;;15.78;77.45;100506.27;214171;1285;140729;-87
2024/03/14 12:44:54;;;;;;;1999.90;999.90;;;;;;;15.65;77.52;100502.66;214754;1283;97956;-85
2024/03/14 12:49:57;;;;;;;1999.90;999.90;;;;;;;15.58;78.58;100501.55;214562;1288;139915;-84
2024/03/14 12:54:58;;;;;;;1999.90;999.90;;;;;;;15.45;78.97;100505.05;215147;1283;139366;-84
2024/03/14 12:59:59;;;;;;;1996.20;999.90;;;;;;;15.44;80.36;100503.55;214885;1288;139754;-85
2024/03/14 13:05:00;;;;;;;1999.90;999.90;;;;;;;15.40;79.66;100502.31;214884;1287;138854;-86
2024/03/14 13:10:09;;;;;;;1999.90;999.90;;;;;;;15.28;80.04;100498.41;214320;1288;140283;-85
2024/03/14 13:15:14;;;;;;;1999.90;999.90;;;;;;;15.21;81.24;100495.91;214352;1288;139876;-85
2024/03/14 13:20:17;;;;;;;1999.90;999.90;;;;;;;15.17;81.83;100497.05;215972;1287;144675;-85
2024/03/14 13:25:17;;;;;;;1999.90;999.90;;;;;;;15.11;81.50;100494.00;214651;1287;139394;-85
2024/03/14 13:30:20;;;;;;;1732.60;999.90;;;;;;;15.01;81.39;100491.84;214010;1282;139939;-84
2024/03/14 13:35:22;;;;;;;1643.20;999.90;;;;;;;14.90;81.18;100484.54;214807;1287;139521;-85
2024/03/14 13:40:22;;;;;;;1497.10;999.90;;;;;;;14.81;80.48;100478.66;214346;1288;139730;-85
2024/03/14 13:45:22;;;;;;;1999.90;999.90;;;;;;;14.69;81.92;100476.73;214883;1288;139314;-85
2024/03/14 13:50:23;;;;;;;1999.90;999.90;;;;;;;14.68;82.65;100476.73;214336;1287;140785;-84
2024/03/14 13:55:37;;;;;;;1999.90;999.90;;;;;;;14.59;82.56;100476.70;215065;1288;139020;-84
2024/03/14 14:00:46;;;;;;;1999.90;999.90;;;;;;;14.49;83.87;100471.53;214324;1288;141235;-84
2024/03/14 14:05:48;;;;;;;1999.90;999.90;;;;;;;14.46;85.17;100474.71;214677;1288;139591;-84
2024/03/14 14:10:50;;;;;;;1999.90;999.90;;;;;;;14.45;86.22;100476.85;214063;1282;141513;-87
2024/03/14 14:15:52;;;;;;;1999.90;999.90;;;;;;;14.40;84.61;100481.54;214715;1288;139590;-85
2024/03/14 14:20:52;;;;;;;1962.20;999.90;;;;;;;14.25;84.86;100475.58;216631;1285;141545;-84
2024/03/14 14:25:54;;;;;;;1801.40;999.90;;;;;;;14.14;85.33;100472.33;214518;1284;139557;-85
2024/03/14 14:30:56;;;;;;;1661.70;999.90;;;;;;;14.09;84.94;100469.98;214138;1288;142241;-84
2024/03/14 14:35:57;;;;;;;1782.40;999.90;;;;;;;13.98;85.27;100470.30;214690;1288;139741;-84
2024/03/14 14:40:57;;;;;;;1999.90;999.90;;;;;;;13.88;86.26;100464.89;214097;1285;141530;-85
2024/03/14 14:45:58;;;;;;;1999.90;999.90;;;;;;;13.82;87.48;100464.48;214496;1282;139710;-84
2024/03/14 14:51:00;;;;;;;1997.30;999.90;;;;;;;13.76;88.29;100466.16;214427;1288;141283;-84
2024/03/14 14:56:13;;;;;;;1999.90;999.90;;;;;;;13.69;89.19;100464.90;214703;1282;99151;-86
2024/03/14 15:01:15;;;;;;;1999.90;999.90;;;;;;;13.65;90.22;100463.16;214113;1282;140943;-86
2024/03/14 15:06:16;;;;;;;1999.90;999.90;;;;;;;13.54;90.89;100459.21;214592;1282;139356;-85
2024/03/14 15:11:16;;;;;;;1999.90;999.90;;;;;;;13.43;92.23;100454.33;214148;1287;143894;-85
2024/03/14 15:16:17;;;;;;;1999.90;999.90;;;;;;;13.33;93.39;100448.09;214561;1283;139531;-84
2024/03/14 15:21:17;;;;;;;1999.90;999.90;;;;;;;13.31;94.68;100448.16;216407;1283;141150;-85
2024/03/14 15:26:19;;;;;;;1999.90;999.90;;;;;;;13.26;95.13;100450.46;214419;1288;141491;-86
2024/03/14 15:31:24;;;;;;;1766.90;999.90;;;;;;;13.17;95.85;100447.53;214622;1286;139829;-86
2024/03/14 15:36:26;;;;;;;1936.40;999.90;;;;;;;13.12;96.39;100448.08;214322;1285;140807;-85
2024/03/14 15:41:27;;;;;;;1913.80;999.90;;;;;;;13.06;97.15;100443.17;214741;1287;139655;-85
2024/03/14 15:46:27;;;;;;;1814.70;998.40;;;;;;;12.98;97.96;100447.27;214155;1285;144149;-84
2024/03/14 15:51:28;;;;;;;1574.40;983.70;;;;;;;12.88;99.21;100449.20;214803;1288;140352;-85
2024/03/14 15:56:28;;;;;;;1420.10;953.60;;;;;;;12.77;99.85;100450.66;214566;1283;141647;-83
2024/03/14 16:01:30;;;;;;;1390.20;954.40;;;;;;;12.74;100.00;100454.61;214942;1283;140479;-84
2024/03/14 16:06:30;;;;;;;1163.30;918.20;;;;;;;12.69;100.00;100454.66;214281;1283;141068;-84
2024/03/14 16:11:31;;;;;;;1094.30;884.90;;;;;;;12.64;100.00;100451.18;214754;1288;139900;-85
2024/03/14 16:16:34;;;;;;;1008.90;872.90;;;;;;;12.62;100.00;100455.20;214056;1283;141761;-85
2024/03/14 16:21:37;;;;;;;917.30;825.20;;;;;;;12.58;100.00;100454.23;216068;1287;138901;-83
2024/03/14 16:26:40;;;;;;;885.20;800.60;;;;;;;12.48;100.00;100448.84;215328;1285;141030;-83
2024/03/14 16:31:41;;;;;;;828.50;748.30;;;;;;;12.42;100.00;100451.81;214796;1287;139434;-85
2024/03/14 16:36:42;;;;;;;809.40;736.50;;;;;;;12.38;100.00;100454.23;214076;1283;141249;-85
2024/03/14 16:41:42;;;;;;;812.40;742.60;;;;;;;12.32;100.00;100455.95;214430;1288;139739;-84
2024/03/14 16:46:43;;;;;;;804.10;733.70;;;;;;;12.23;100.00;100449.36;213904;1288;140514;-85
2024/03/14 16:51:43;;;;;;;748.20;685.10;;;;;;;12.20;100.00;100453.84;214967;1288;139593;-85
2024/03/14 16:56:44;;;;;;;737.40;675.10;;;;;;;12.15;100.00;100445.94;214831;1283;141057;-84
2024/03/14 17:01:44;;;;;;;715.50;654.90;;;;;;;12.08;100.00;100446.77;214665;1284;139436;-84
2024/03/14 17:06:45;;;;;;;718.40;659.10;;;;;;;11.99;100.00;100450.03;214894;1288;140780;-84
2024/03/14 17:11:45;;;;;;;664.60;611.50;;;;;;;11.92;100.00;100446.92;215064;1283;139524;-85
2024/03/14 17:16:46;;;;;;;633.70;581.20;;;;;;;11.90;100.00;100448.56;214569;1288;141022;-84
2024/03/14 17:21:46;;;;;;;610.00;563.00;;;;;;;11.89;100.00;100448.23;215352;1282;138570;-84
2024/03/14 17:26:48;;;;;;;655.60;601.40;;;;;;;11.86;100.00;100456.41;215050;1287;141102;-86
2024/03/14 17:31:48;;;;;;;647.10;595.60;;;;;;;11.82;100.00;100453.79;214444;1287;139506;-85
2024/03/14 17:36:49;;;;;;;669.80;614.70;;;;;;;11.77;100.00;100459.19;214115;1289;140944;-85
2024/03/14 17:41:54;;;;;;;620.20;566.10;;;;;;;11.70;100.00;100455.13;214604;1286;140309;-87
2024/03/14 17:46:55;;;;;;;612.00;563.00;;;;;;;11.66;100.00;100459.44;213811;1286;140726;-85
2024/03/14 17:51:56;;;;;;;591.50;545.10;;;;;;;11.59;100.00;100456.69;214549;1289;140275;-86
2024/03/14 17:56:56;;;;;;;624.50;574.50;;;;;;;11.51;100.00;100455.58;214128;1283;141415;-86
2024/03/14 18:01:59;;;;;;;513.70;474.70;;;;;;;11.42;100.00;100455.29;214511;1288;108755;-86
2024/03/14 18:07:00;;;;;;;506.90;469.00;;;;;;;11.37;100.00;100455.87;214163;1283;141280;-86
2024/03/14 18:12:01;;;;;;;490.50;454.40;;;;;;;11.34;100.00;100455.59;214551;1286;139695;-86
2024/03/14 18:17:03;;;;;;;455.80;421.50;;;;;;;11.31;100.00;100456.68;214273;1283;140147;-86
2024/03/14 18:22:03;;;;;;;424.50;392.10;;;;;;;11.27;100.00;100454.84;215785;1282;140316;-86
2024/03/14 18:27:06;;;;;;;489.70;453.20;;;;;;;11.22;100.00;100453.13;216719;1286;141036;-86
2024/03/14 18:32:12;;;;;;;411.60;380.20;;;;;;;11.19;100.00;100450.44;215957;1286;97938;-85
2024/03/14 18:37:13;;;;;;;406.30;376.60;;;;;;;11.15;100.00;100449.07;215419;1283;140731;-86
2024/03/14 18:42:14;;;;;;;418.60;387.40;;;;;;;11.12;100.00;100454.86;215134;1286;139764;-86
2024/03/14 18:47:16;;;;;;;433.40;401.40;;;;;;;11.09;100.00;100452.79;214117;1287;140905;-86
2024/03/14 18:52:17;;;;;;;424.90;394.10;;;;;;;11.08;100.00;100454.35;214585;1286;139883;-86
2024/03/14 18:57:17;;;;;;;417.10;387.30;;;;;;;11.08;100.00;100454.11;213676;1286;141002;-86
2024/03/14 19:02:20;;;;;;;406.50;376.60;;;;;;;11.07;100.00;100458.51;214747;1288;98076;-85
2024/03/14 19:07:20;;;;;;;435.20;403.60;;;;;;;11.07;100.00;100453.55;213959;1283;141412;-86
2024/03/14 19:12:21;;;;;;;392.90;364.30;;;;;;;11.06;100.00;100453.30;214511;1282;139486;-85
2024/03/14 19:17:21;;;;;;;454.80;421.50;;;;;;;11.03;100.00;100446.91;213762;1289;140866;-86
2024/03/14 19:22:22;;;;;;;452.50;419.40;;;;;;;11.02;100.00;100447.05;214723;1282;140343;-86
2024/03/14 19:27:22;;;;;;;489.80;452.50;;;;;;;11.03;100.00;100444.93;214782;1283;141460;-85
2024/03/14 19:32:23;;;;;;;453.80;419.70;;;;;;;11.02;100.00;100444.92;214700;1282;97959;-85
2024/03/14 19:37:24;;;;;;;447.80;414.00;;;;;;;11.01;100.00;100437.20;213968;1286;140950;-85
2024/03/14 19:42:24;;;;;;;489.90;453.50;;;;;;;10.99;100.00;100432.15;214584;1282;139587;-86
2024/03/14 19:47:25;;;;;;;424.30;392.70;;;;;;;10.94;100.00;100431.72;214099;1286;140985;-86
2024/03/14 19:52:26;;;;;;;481.50;446.80;;;;;;;10.86;100.00;100424.79;214346;1282;139506;-87
2024/03/14 19:57:27;;;;;;;501.30;463.80;;;;;;;10.83;100.00;100426.65;213756;1285;140655;-84
2024/03/14 20:02:28;;;;;;;513.20;474.10;;;;;;;10.84;100.00;100430.98;214343;1283;98927;-86
2024/03/14 20:07:28;;;;;;;513.00;474.50;;;;;;;10.86;100.00;100432.98;214232;1286;140563;-86
2024/03/14 20:12:29;;;;;;;504.30;465.50;;;;;;;10.86;100.00;100428.88;215064;1284;139483;-85
2024/03/14 20:17:29;;;;;;;479.40;443.20;;;;;;;10.86;100.00;100420.61;214152;1283;140826;-85
2024/03/14 20:22:29;;;;;;;410.30;379.80;;;;;;;10.86;100.00;100422.02;214754;1286;139919;-84
2024/03/14 20:27:34;;;;;;;495.10;458.40;;;;;;;10.87;100.00;100423.93;216088;1287;446259;-86
2024/03/14 20:32:35;;;;;;;456.90;424.50;;;;;;;10.87;100.00;100417.09;216050;1287;111312;-86
2024/03/14 20:37:36;;;;;;;451.50;418.90;;;;;;;10.86;100.00;100415.27;215121;1285;142272;-86
2024/03/14 20:43:21;;;;;;;588.70;541.80;;;;;;;10.89;100.00;100402.71;212115;1295;635559;-86
2024/03/14 20:48:22;;;;;;;525.20;487.20;;;;;;;10.88;100.00;100407.73;212118;1298;139455;-86
2024/03/14 20:53:23;;;;;;;487.10;451.90;;;;;;;10.88;100.00;100402.55;212345;1297;195870;-86
2024/03/14 20:58:27;;;;;;;522.30;482.60;;;;;;;10.86;100.00;100398.89;212561;1295;140032;-86
2024/03/14 21:03:27;;;;;;;494.00;455.40;;;;;;;10.85;100.00;100397.58;213003;1294;138960;-87
2024/03/14 21:08:28;;;;;;;520.20;481.00;;;;;;;10.83;100.00;100405.79;212183;1296;139945;-87
2024/03/14 21:13:30;;;;;;;487.00;450.90;;;;;;;10.83;100.00;100401.94;212547;1294;138736;-86
2024/03/14 21:18:31;;;;;;;467.00;431.70;;;;;;;10.82;100.00;100400.84;211757;1294;140113;-85
2024/03/14 21:23:33;;;;;;;505.00;466.10;;;;;;;10.80;100.00;100397.52;212706;1297;140372;-85
2024/03/14 21:28:34;;;;;;;515.40;477.50;;;;;;;10.77;100.00;100401.33;214886;1294;139807;-85
2024/03/14 21:33:35;;;;;;;495.60;458.10;;;;;;;10.75;100.00;100392.52;212814;1291;139521;-85
2024/03/14 21:38:35;;;;;;;470.30;435.70;;;;;;;10.71;100.00;100388.78;212501;1291;139928;-86
2024/03/14 21:43:36;;;;;;;485.90;449.40;;;;;;;10.70;100.00;100382.72;212891;1294;138971;-86
2024/03/14 21:48:36;;;;;;;488.40;450.80;;;;;;;10.69;100.00;100381.45;212333;1291;139794;-86